Time;durP1;ratioP1;P1;durP2;ratioP2;P2;SDS_P1;SDS_P2;PMS_P1;PMS_P2;Temp;Humidity;BMP_temperature;BMP_pressure;BME280_temperature;BME280_humidity;BME280_pressure;Samples;Min_cycle;Max_cycle;Signal;HPM_P1;HPM_P2
2023/11/06 00:00:39;;;;;;;;;;;;;;;10.91;84.96;98571.44;4058019;29;20019;-69
2023/11/06 00:02:41;;;;;;;;;;;;;;;10.90;84.65;98567.91;4057406;29;20040;-68
2023/11/06 00:04:42;;;;;;;;;;;;;;;10.89;84.87;98582.47;4058174;29;20026;-68
2023/11/06 00:06:43;;;;;;;;;;;;;;;10.88;84.72;98593.50;4058853;29;20018;-68
2023/11/06 00:08:45;;;;;;;;;;;;;;;10.87;84.55;98589.16;4058918;29;20445;-68
2023/11/06 00:10:48;;;;;;;;;;;;;;;10.86;84.45;98587.50;4061533;29;20030;-68
2023/11/06 00:12:50;;;;;;;;;;;;;;;10.87;84.33;98594.56;4061059;29;20030;-68
2023/11/06 00:14:54;;;;;;;;;;;;;;;10.87;84.34;98600.78;4060901;29;20211;-68
2023/11/06 00:16:55;;;;;;;;;;;;;;;10.90;83.92;98599.50;4060193;29;20437;-68
2023/11/06 00:18:57;;;;;;;;;;;;;;;10.90;84.13;98616.53;4061180;29;20030;-68
2023/11/06 00:20:59;;;;;;;;;;;;;;;10.91;83.74;98626.28;4061028;29;20132;-68
2023/11/06 00:23:01;;;;;;;;;;;;;;;10.89;83.74;98620.28;4060812;29;20031;-68
2023/11/06 00:25:03;;;;;;;;;;;;;;;10.90;83.71;98626.50;4061342;29;20470;-67
2023/11/06 00:27:05;;;;;;;;;;;;;;;10.88;83.72;98639.41;4061165;29;20262;-67
2023/11/06 00:29:08;;;;;;;;;;;;;;;10.87;83.72;98643.19;4061004;29;20022;-67
2023/11/06 00:31:10;;;;;;;;;;;;;;;10.88;83.70;98640.25;4060567;29;20021;-67
2023/11/06 00:33:12;;;;;;;;;;;;;;;10.86;83.83;98646.91;4045110;29;20014;-68
2023/11/06 00:35:16;;;;;;;;;;;;;;;10.86;83.69;98655.03;4061587;29;20029;-67
2023/11/06 00:37:17;;;;;;;;;;;;;;;10.83;83.98;98659.03;4041192;29;20038;-68
2023/11/06 00:39:19;;;;;;;;;;;;;;;10.81;84.24;98655.72;4029012;29;19932;-68
2023/11/06 00:41:21;;;;;;;;;;;;;;;10.79;84.28;98674.84;4029035;29;20031;-67
2023/11/06 00:43:23;;;;;;;;;;;;;;;10.78;84.29;98669.66;4060248;29;20027;-67
2023/11/06 00:45:26;;;;;;;;;;;;;;;10.78;84.50;98684.00;4028827;29;20032;-68
2023/11/06 00:47:28;;;;;;;;;;;;;;;10.77;84.33;98692.34;4059937;29;20023;-67
2023/11/06 00:49:30;;;;;;;;;;;;;;;10.80;83.92;98670.28;4061609;29;20025;-68
2023/11/06 00:51:32;;;;;;;;;;;;;;;10.81;83.77;98701.63;4060267;29;20022;-68
2023/11/06 00:53:34;;;;;;;;;;;;;;;10.79;83.47;98672.16;4043994;29;20522;-68
2023/11/06 00:55:37;;;;;;;;;;;;;;;10.81;83.30;98696.22;4061122;29;20026;-68
2023/11/06 00:57:39;;;;;;;;;;;;;;;10.81;83.04;98683.56;4044004;29;20588;-68
2023/11/06 00:59:41;;;;;;;;;;;;;;;10.81;82.82;98694.38;4060816;29;20021;-68
2023/11/06 01:01:43;;;;;;;;;;;;;;;10.81;82.85;98718.66;4060822;29;20030;-68
2023/11/06 01:03:46;;;;;;;;;;;;;;;10.86;82.29;98706.34;4061545;29;20028;-68
2023/11/06 01:05:48;;;;;;;;;;;;;;;10.81;82.40;98698.91;4060273;29;20442;-68
2023/11/06 01:07:50;;;;;;;;;;;;;;;10.79;81.98;98709.13;4059971;29;20026;-68
2023/11/06 01:09:52;;;;;;;;;;;;;;;10.82;82.02;98700.56;4060415;29;20026;-68
2023/11/06 01:11:54;;;;;;;;;;;;;;;10.82;81.87;98728.41;4061116;29;20401;-68
2023/11/06 01:13:56;;;;;;;;;;;;;;;10.84;81.44;98716.56;4060349;29;20026;-68
2023/11/06 01:15:57;;;;;;;;;;;;;;;10.82;81.56;98725.69;4060786;29;20010;-68
2023/11/06 01:18:01;;;;;;;;;;;;;;;10.81;81.36;98726.75;4060135;29;19931;-68
2023/11/06 01:20:04;;;;;;;;;;;;;;;10.79;81.67;98723.44;4028431;29;19935;-67
2023/11/06 01:22:05;;;;;;;;;;;;;;;10.79;81.32;98736.94;4060877;29;20014;-67
2023/11/06 01:24:08;;;;;;;;;;;;;;;10.79;81.27;98744.25;4060358;29;20011;-67
2023/11/06 01:26:10;;;;;;;;;;;;;;;10.79;81.39;98750.44;4061454;29;19999;-67
2023/11/06 01:28:12;;;;;;;;;;;;;;;10.80;81.18;98751.28;4060556;29;20021;-67
2023/11/06 01:30:14;;;;;;;;;;;;;;;10.80;81.16;98754.00;4060249;29;19974;-67
2023/11/06 01:32:20;;;;;;;;;;;;;;;10.79;81.19;98755.84;4060320;29;20014;-67
2023/11/06 01:34:23;;;;;;;;;;;;;;;10.79;81.36;98766.66;4029245;29;20030;-67
2023/11/06 01:36:25;;;;;;;;;;;;;;;10.77;81.45;98762.56;4058740;29;20022;-67
2023/11/06 01:38:27;;;;;;;;;;;;;;;10.76;81.24;98761.72;4060492;29;20030;-67
2023/11/06 01:40:30;;;;;;;;;;;;;;;10.79;81.46;98782.84;4060971;29;19934;-67
2023/11/06 01:42:32;;;;;;;;;;;;;;;10.78;81.60;98777.69;4059657;29;20380;-67
2023/11/06 01:44:34;;;;;;;;;;;;;;;10.79;81.58;98776.63;4029584;29;20043;-67
2023/11/06 01:46:36;;;;;;;;;;;;;;;10.76;81.45;98771.69;4043463;29;20027;-67
2023/11/06 01:48:38;;;;;;;;;;;;;;;10.76;81.34;98777.91;4059515;29;20098;-67
2023/11/06 01:50:41;;;;;;;;;;;;;;;10.72;81.68;98789.38;4043240;29;20450;-67
2023/11/06 01:52:43;;;;;;;;;;;;;;;10.72;81.69;98782.13;4059689;29;20014;-67
2023/11/06 01:54:45;;;;;;;;;;;;;;;10.71;81.35;98785.06;4060062;29;20066;-67
2023/11/06 01:56:47;;;;;;;;;;;;;;;10.71;81.67;98801.25;4059435;29;20467;-67
2023/11/06 01:58:48;;;;;;;;;;;;;;;10.68;81.79;98785.50;4042896;29;20067;-67
2023/11/06 02:00:50;;;;;;;;;;;;;;;10.67;81.72;98790.06;4028224;29;19935;-67
2023/11/06 02:02:52;;;;;;;;;;;;;;;10.66;81.94;98801.09;4043368;29;20051;-67
2023/11/06 02:04:53;;;;;;;;;;;;;;;10.59;82.01;98798.47;4042911;29;20048;-67
2023/11/06 02:06:56;;;;;;;;;;;;;;;10.61;81.90;98809.84;4059621;29;19935;-67
2023/11/06 02:08:58;;;;;;;;;;;;;;;10.61;81.83;98813.41;4060280;29;20022;-67
2023/11/06 02:11:00;;;;;;;;;;;;;;;10.62;81.70;98804.22;4042274;29;20023;-67
2023/11/06 02:13:02;;;;;;;;;;;;;;;10.61;81.71;98802.59;4057469;29;20022;-67
2023/11/06 02:15:05;;;;;;;;;;;;;;;10.61;81.88;98809.84;4059668;29;20054;-67
2023/11/06 02:17:06;;;;;;;;;;;;;;;10.63;81.85;98808.59;4042594;29;19990;-67
2023/11/06 02:19:08;;;;;;;;;;;;;;;10.63;81.59;98826.66;4040976;29;20010;-67
2023/11/06 02:21:10;;;;;;;;;;;;;;;10.61;81.62;98826.06;4042123;29;19938;-67
2023/11/06 02:23:13;;;;;;;;;;;;;;;10.63;81.64;98832.06;4059375;29;20029;-67
2023/11/06 02:25:14;;;;;;;;;;;;;;;10.59;81.66;98823.56;4058492;29;20015;-67
2023/11/06 02:27:16;;;;;;;;;;;;;;;10.56;81.44;98834.81;4027500;29;19969;-67
2023/11/06 02:29:17;;;;;;;;;;;;;;;10.58;81.61;98840.00;4059002;29;20034;-67
2023/11/06 02:31:19;;;;;;;;;;;;;;;10.56;81.31;98828.59;4056313;29;20352;-67
2023/11/06 02:33:20;;;;;;;;;;;;;;;10.58;81.33;98840.00;4056055;29;20058;-68
2023/11/06 02:35:23;;;;;;;;;;;;;;;10.53;81.53;98838.00;4058395;29;20029;-68
2023/11/06 02:37:25;;;;;;;;;;;;;;;10.57;81.35;98844.56;4058763;29;20553;-68
2023/11/06 02:39:27;;;;;;;;;;;;;;;10.58;81.19;98846.25;4057726;29;20011;-68
2023/11/06 02:41:29;;;;;;;;;;;;;;;10.57;81.13;98849.16;4058624;29;20441;-68
2023/11/06 02:43:31;;;;;;;;;;;;;;;10.56;81.10;98859.13;4041670;29;20035;-68
2023/11/06 02:45:32;;;;;;;;;;;;;;;10.56;80.94;98852.91;4058419;29;20018;-70
2023/11/06 02:47:34;;;;;;;;;;;;;;;10.57;80.77;98884.25;4026433;29;19980;-65
2023/11/06 02:49:35;;;;;;;;;;;;;;;10.59;81.04;98874.88;4058476;29;20426;-68
2023/11/06 02:51:37;;;;;;;;;;;;;;;10.55;80.83;98886.31;4058884;29;19931;-66
2023/11/06 02:53:39;;;;;;;;;;;;;;;10.57;80.70;98865.34;4058255;29;20022;-67
2023/11/06 02:55:42;;;;;;;;;;;;;;;10.56;80.62;98902.31;4042242;29;20014;-67
2023/11/06 02:57:44;;;;;;;;;;;;;;;10.59;80.37;98898.34;4041009;29;20021;-70
2023/11/06 02:59:45;;;;;;;;;;;;;;;10.55;80.31;98897.13;4057531;29;20046;-67
2023/11/06 03:01:47;;;;;;;;;;;;;;;10.51;80.09;98909.44;4041917;29;19928;-70
2023/11/06 03:03:48;;;;;;;;;;;;;;;10.52;80.04;98911.09;4026199;29;20019;-66
2023/11/06 03:05:50;;;;;;;;;;;;;;;10.52;80.04;98916.50;4040833;29;19944;-70
2023/11/06 03:07:52;;;;;;;;;;;;;;;10.52;80.17;98917.31;4058603;29;20485;-71
2023/11/06 03:09:54;;;;;;;;;;;;;;;10.52;79.73;98933.50;4057539;29;20018;-72
2023/11/06 03:11:57;;;;;;;;;;;;;;;10.51;79.55;98926.44;4057665;29;20038;-70
2023/11/06 03:13:59;;;;;;;;;;;;;;;10.51;79.68;98928.31;4042657;29;20031;-68
2023/11/06 03:16:01;;;;;;;;;;;;;;;10.50;79.50;98935.59;4041312;29;20071;-65
2023/11/06 03:18:04;;;;;;;;;;;;;;;10.49;79.14;98938.53;4057217;29;20022;-66
2023/11/06 03:20:10;;;;;;;;;;;;;;;10.46;79.17;98946.00;4026240;29;20026;-72
2023/11/06 03:22:13;;;;;;;;;;;;;;;10.45;79.29;98947.06;4056905;29;19932;-73
2023/11/06 03:24:14;;;;;;;;;;;;;;;10.46;79.25;98948.69;4056926;29;20280;-70
2023/11/06 03:26:16;;;;;;;23.45;19.35;;;;;;;10.46;78.87;98956.78;4039407;29;24901;-66
2023/11/06 03:28:19;;;;;;;19.55;17.60;;;;;;;10.45;79.21;98960.56;4057080;29;20287;-67
2023/11/06 03:30:22;;;;;;;18.45;16.60;;;;;;;10.44;79.05;98971.56;4025205;29;20317;-67
2023/11/06 03:32:24;;;;;;;19.30;17.40;;;;;;;10.42;79.05;98985.28;4025781;29;20320;-68
2023/11/06 03:34:26;;;;;;;19.33;17.43;;;;;;;10.41;78.59;98978.22;4057012;29;20284;-68
2023/11/06 03:36:29;;;;;;;20.80;18.60;;;;;;;10.42;79.02;98990.69;4056863;29;20287;-67
2023/11/06 03:38:30;;;;;;;19.17;17.30;;;;;;;10.39;78.63;98984.88;4056343;29;20287;-69
2023/11/06 03:40:34;;;;;;;19.30;17.40;;;;;;;10.39;78.47;98984.88;4056487;29;20283;-69
2023/11/06 03:42:35;;;;;;;18.47;16.77;;;;;;;10.35;78.68;99003.38;4056164;29;20746;-69
2023/11/06 03:44:40;;;;;;;17.70;16.20;;;;;;;10.34;78.63;98995.50;4057296;29;20311;-67
2023/11/06 03:46:41;;;;;;;17.57;16.10;;;;;;;10.34;78.64;99006.31;4056133;29;20758;-69
2023/11/06 03:48:43;;;;;;;17.40;16.02;;;;;;;10.31;78.41;99006.72;4040489;29;20304;-70
2023/11/06 03:50:47;;;;;;;16.90;15.60;;;;;;;10.31;78.53;99004.81;4057158;29;20652;-70
2023/11/06 03:52:49;;;;;;;16.63;15.38;;;;;;;10.29;78.65;99023.13;4043159;29;20336;-66
2023/11/06 03:54:52;;;;;;;17.77;16.30;;;;;;;10.28;78.69;99021.44;4057573;29;20759;-70
2023/11/06 03:56:54;;;;;;;17.80;16.30;;;;;;;10.22;78.66;99012.38;4056967;29;20310;-68
2023/11/06 03:58:56;;;;;;;17.57;16.10;;;;;;;10.24;78.33;99015.66;4056644;29;20291;-66
2023/11/06 04:01:00;;;;;;;17.70;16.23;;;;;;;10.24;78.55;99022.94;4056824;29;20326;-68
2023/11/06 04:03:02;;;;;;;17.93;16.43;;;;;;;10.23;78.61;99030.19;4056735;29;20229;-67
2023/11/06 04:05:07;;;;;;;16.87;15.57;;;;;;;10.22;78.32;99031.25;4057022;29;20303;-67
2023/11/06 04:07:10;;;;;;;;;;;;;;;10.22;78.21;99043.91;4057063;29;20631;-66
2023/11/06 04:09:12;;;;;;;11.20;10.70;;;;;;;10.20;78.27;99037.91;4056435;29;20018;-69
2023/11/06 04:11:14;;;;;;;;;;;;;;;10.20;78.37;99040.59;4057383;29;21168;-71
2023/11/06 04:13:16;;;;;;;;;;;;;;;10.20;78.43;99041.44;4025644;29;20459;-69
2023/11/06 04:15:17;;;;;;;;;;;;;;;10.16;78.11;99044.78;4058097;29;20045;-66
2023/11/06 04:17:20;;;;;;;;;;;;;;;10.15;78.36;99051.22;4057809;29;20010;-67
2023/11/06 04:19:23;;;;;;;;;;;;;;;10.14;78.46;99050.41;4057932;29;20022;-67
2023/11/06 04:21:26;;;;;;;;;;;;;;;10.12;78.41;99055.16;4057213;29;20018;-67
2023/11/06 04:23:29;;;;;;;;;;;;;;;10.13;78.43;99056.84;4058062;29;19931;-67
2023/11/06 04:25:30;;;;;;;;;;;;;;;10.10;78.56;99065.34;4025689;29;19930;-67
2023/11/06 04:27:32;;;;;;;;;;;;;;;10.08;78.51;99062.88;4055338;29;19958;-67
2023/11/06 04:29:34;;;;;;;;;;;;;;;10.07;78.70;99069.28;4056755;29;20022;-67
2023/11/06 04:31:36;;;;;;;;;;;;;;;10.07;78.28;99071.19;4057243;29;20030;-67
2023/11/06 04:33:39;;;;;;;;;;;;;;;10.07;78.69;99074.69;4057693;29;20369;-67
2023/11/06 04:35:42;;;;;;;;;;;;;;;10.05;78.68;99076.78;4057940;29;20049;-67
2023/11/06 04:37:46;;;;;;;;;;;;;;;10.01;78.74;99080.94;4057594;29;20021;-67
2023/11/06 04:39:48;;;;;;;;;;;;;;;10.01;78.52;99088.22;4057540;29;20084;-67
2023/11/06 04:41:50;;;;;;;;;;;;;;;9.98;78.73;99092.16;4053954;29;20017;-67
2023/11/06 04:43:52;;;;;;;;;;;;;;;9.97;78.92;99087.81;4057456;29;19923;-67
2023/11/06 04:45:54;;;;;;;;;;;;;;;9.97;78.71;99093.22;4056309;29;20459;-67
2023/11/06 04:47:56;;;;;;;;;;;;;;;9.95;78.88;99084.50;4057944;29;20018;-67
2023/11/06 04:49:59;;;;;;;;;;;;;;;9.93;79.01;99100.88;4057044;29;20021;-67
2023/11/06 04:52:01;;;;;;;;;;;;;;;9.92;78.96;99093.00;4057655;29;20022;-67
2023/11/06 04:54:03;;;;;;;;;;;;;;;9.91;78.78;99097.59;4057693;29;20010;-67
2023/11/06 04:56:05;;;;;;;;;;;;;;;9.93;78.82;99105.47;4059970;29;20029;-67
2023/11/06 04:58:07;;;;;;;;;;;;;;;9.93;78.99;99102.75;4060457;29;20017;-67
2023/11/06 05:00:10;;;;;;;;;;;;;;;9.92;78.90;99101.09;4060671;29;20027;-67
2023/11/06 05:02:13;;;;;;;;;;;;;;;9.93;79.22;99100.88;4059243;29;20465;-67
2023/11/06 05:04:16;;;;;;;;;;;;;;;9.94;79.02;99104.44;4059304;29;19927;-67
2023/11/06 05:06:19;;;;;;;;;;;;;;;9.93;79.30;99102.75;4058989;29;20668;-67
2023/11/06 05:08:21;;;;;;;;;;;;;;;9.93;79.22;99114.38;4060671;29;20439;-67
2023/11/06 05:10:23;;;;;;;;;;;;;;;9.94;79.10;99104.44;4058882;29;20730;-68
2023/11/06 05:12:24;;;;;;;;;;;;;;;9.94;79.09;99112.53;4059673;29;20026;-67
2023/11/06 05:14:26;;;;;;;;;;;;;;;9.92;79.28;99119.97;4059386;29;20279;-67
2023/11/06 05:16:28;;;;;;;;;;;;;;;9.93;79.33;99129.72;4059706;29;20468;-67
2023/11/06 05:18:30;;;;;;;;;;;;;;;9.95;79.33;99151.09;4058529;29;20034;-67
2023/11/06 05:20:32;;;;;;;;;;;;;;;9.95;79.32;99138.44;4060073;29;20392;-67
2023/11/06 05:22:35;;;;;;;;;;;;;;;9.96;79.46;99137.41;4042843;29;20022;-67
2023/11/06 05:24:41;;;;;;;;;;;;;;;9.98;79.56;99143.41;4060449;29;19923;-67
2023/11/06 05:26:43;;;;;;;;;;;;;;;9.96;79.42;99137.41;4059795;29;20033;-67
2023/11/06 05:28:44;;;;;;;;;;;;;;;9.98;79.26;99143.41;4059241;29;20059;-67
2023/11/06 05:30:46;;;;;;;;;;;;;;;9.98;79.31;99154.19;4027814;29;20018;-67
2023/11/06 05:32:48;;;;;;;;;;;;;;;9.99;79.64;99158.56;4056878;29;20041;-67
2023/11/06 05:34:50;;;;;;;;;;;;;;;9.99;79.35;99155.03;4059504;29;20014;-67
2023/11/06 05:36:52;;;;;;;;;;;;;;;10.01;79.54;99150.25;4060757;29;20026;-67
2023/11/06 05:38:54;;;;;;;;;;;;;;;10.00;79.68;99156.66;4057589;29;20031;-68
2023/11/06 05:40:59;;;;;;;;;;;;;;;9.99;79.72;99153.16;4042533;29;19924;-67
2023/11/06 05:43:01;;;;;;;;;;;;;;;9.98;79.67;99170.38;4059444;29;20400;-67
2023/11/06 05:45:03;;;;;;;;;;;;;;;10.03;79.83;99158.94;4060120;29;20634;-67
2023/11/06 05:47:05;;;;;;;;;;;;;;;10.04;79.59;99164.13;4059399;29;20006;-67
2023/11/06 05:49:07;;;;;;;;;;;;;;;10.06;79.33;99162.06;4060119;29;20010;-67
2023/11/06 05:51:09;;;;;;;;;;;;;;;10.04;79.42;99166.00;4059410;29;20014;-67
2023/11/06 05:53:12;;;;;;;;;;;;;;;10.04;79.34;99166.00;4059206;29;20022;-67
2023/11/06 05:55:15;;;;;;;;;;;;;;;10.03;79.22;99172.44;4059444;29;19991;-68
2023/11/06 05:57:17;;;;;;;;;;;;;;;10.04;79.19;99185.72;4060817;29;20026;-68
2023/11/06 05:59:19;;;;;;;;;;;;;;;10.10;79.35;99200.22;4060353;29;20034;-68
2023/11/06 06:01:21;;;;;;;;;;;;;;;10.12;79.36;99206.22;4058865;29;20124;-67
2023/11/06 06:03:22;;;;;;;;;;;;;;;10.13;79.19;99197.09;4059353;29;20027;-67
2023/11/06 06:05:24;;;;;;;;;;;;;;;10.13;79.09;99185.50;4060100;29;19935;-69
2023/11/06 06:07:26;;;;;;;;;;;;;;;10.14;79.38;99203.31;4059317;29;20014;-67
2023/11/06 06:09:29;;;;;;;;;;;;;;;10.13;79.32;99212.47;4058404;29;20037;-67
2023/11/06 06:11:36;;;;;;;21.52;18.55;;;;;;;10.13;79.18;99207.09;4056735;29;24574;-70
2023/11/06 06:13:38;;;;;;;17.10;15.77;;;;;;;10.15;79.11;99223.88;4058551;29;20675;-68
2023/11/06 06:15:40;;;;;;;16.67;15.47;;;;;;;10.18;79.60;99218.88;4058207;29;20292;-69
2023/11/06 06:20:14;;;;;;;16.50;15.30;;;;;;;10.17;79.40;99224.47;4056385;29;20208;-68
2023/11/06 06:22:19;;;;;;;16.45;15.27;;;;;;;10.16;79.53;99234.47;4040844;29;20228;-68
2023/11/06 06:24:22;;;;;;;15.68;14.63;;;;;;;10.20;79.12;99229.47;4058237;29;20301;-68
2023/11/06 06:26:25;;;;;;;14.95;13.98;;;;;;;10.19;79.09;99228.63;4058102;29;20232;-68
2023/11/06 06:28:29;;;;;;;15.18;14.18;;;;;;;10.21;79.28;99242.75;4058115;29;20750;-68
2023/11/06 06:30:31;;;;;;;15.30;14.30;;;;;;;10.21;79.25;99248.13;4058136;29;20305;-68
2023/11/06 06:32:34;;;;;;;14.23;13.40;;;;;;;10.20;79.51;99251.91;4056729;29;20335;-68
2023/11/06 06:34:36;;;;;;;13.70;12.90;;;;;;;10.22;79.46;99243.56;4057686;29;20290;-68
2023/11/06 06:36:38;;;;;;;13.98;13.18;;;;;;;10.24;79.54;99253.09;4056457;29;20264;-68
2023/11/06 06:38:40;;;;;;;12.85;12.15;;;;;;;10.24;79.27;99263.09;4058326;29;20287;-68
2023/11/06 06:40:43;;;;;;;12.20;11.60;;;;;;;10.23;79.31;99267.63;4054064;29;20312;-68
2023/11/06 06:42:44;;;;;;;11.32;10.82;;;;;;;10.24;79.51;99265.78;4057933;29;20323;-68
2023/11/06 06:44:51;;;;;;;11.85;11.32;;;;;;;10.23;79.68;99266.81;4058572;29;20291;-69
2023/11/06 06:46:56;;;;;;;12.10;11.55;;;;;;;10.25;79.25;99270.13;4058164;29;20224;-69
2023/11/06 06:48:58;;;;;;;12.27;11.70;;;;;;;10.28;79.62;99272.41;4058454;29;20785;-69
2023/11/06 06:51:00;;;;;;;10.45;10.05;;;;;;;10.28;79.30;99269.69;4057081;29;20279;-69
2023/11/06 06:53:02;;;;;;;13.43;12.75;;;;;;;10.28;79.32;99275.09;4057784;29;20300;-68
2023/11/06 06:55:05;;;;;;;14.93;14.18;;;;;;;10.27;79.17;99292.34;4058577;29;20291;-69
2023/11/06 06:57:07;;;;;;;12.98;12.38;;;;;;;10.30;79.32;99300.03;4058491;29;20291;-69
2023/11/06 06:59:09;;;;;;;14.80;14.07;;;;;;;10.29;79.56;99301.03;4058505;29;20295;-69
2023/11/06 07:01:13;;;;;;;16.70;15.80;;;;;;;10.29;79.64;99290.25;4058120;29;20284;-69
2023/11/06 07:03:16;;;;;;;13.70;13.00;;;;;;;10.29;79.32;99287.56;4058442;29;20316;-69
2023/11/06 07:05:19;;;;;;;14.53;13.80;;;;;;;10.31;79.78;99296.25;4058686;29;20286;-69
2023/11/06 07:07:22;;;;;;;10.63;10.18;;;;;;;10.32;79.60;99289.00;4057957;29;20287;-70
2023/11/06 07:09:26;;;;;;;27.80;26.10;;;;;;;10.34;79.26;99303.16;4058365;29;20841;-70
2023/11/06 07:11:29;;;;;;;;;;;;;;;10.35;79.35;99302.13;4058780;29;20299;-70
2023/11/06 07:13:32;;;;;;;15.20;14.20;;;;;;;10.36;79.48;99295.66;4055206;29;24557;-69
2023/11/06 07:15:34;;;;;;;10.73;10.23;;;;;;;10.32;79.64;99289.84;4041678;29;20304;-69
2023/11/06 07:17:38;;;;;;;23.20;21.80;;;;;;;10.37;79.37;99298.16;4056860;29;20296;-69
2023/11/06 07:19:41;;;;;;;;;;;;;;;10.41;79.38;99312.88;4057635;29;20294;-69
2023/11/06 07:21:43;;;;;;;15.20;14.20;;;;;;;10.43;79.23;99309.97;4056201;29;24540;-68
2023/11/06 07:23:45;;;;;;;11.68;11.18;;;;;;;10.43;79.41;99329.69;4056136;29;20323;-69
2023/11/06 07:25:47;;;;;;;14.50;13.77;;;;;;;10.44;79.38;99312.47;4055458;29;20308;-69
2023/11/06 07:27:50;;;;;;;27.70;26.00;;;;;;;10.46;79.31;99326.56;4057365;29;20215;-68
2023/11/06 07:29:52;;;;;;;;;;;;;;;10.49;79.15;99313.72;4056919;29;20850;-68
2023/11/06 07:31:54;;;;;;;12.30;11.65;;;;;;;10.50;79.29;99323.44;4055223;29;24551;-68
2023/11/06 07:33:58;;;;;;;;;;;;;;;10.51;79.18;99330.53;4040260;29;20316;-68
2023/11/06 07:36:00;;;;;;;10.93;10.43;;;;;;;10.50;79.34;99345.91;4055247;29;24545;-68
2023/11/06 07:38:03;;;;;;;;;;;;;;;10.55;79.07;99331.75;4057672;29;20289;-68
2023/11/06 07:40:08;;;;;;;9.13;8.82;;;;;;;10.56;79.32;99344.22;4055504;29;24532;-69
2023/11/06 07:42:11;;;;;;;;;;;;;;;10.58;79.28;99345.66;4056793;29;20374;-68
2023/11/06 07:44:13;;;;;;;4.13;4.03;;;;;;;10.60;79.17;99353.56;4055818;29;25187;-69
2023/11/06 07:46:17;;;;;;;;;;;;;;;10.64;79.03;99338.56;4056829;29;20719;-69
2023/11/06 07:48:19;;;;;;;;;;;;;;;10.66;78.89;99343.75;4058187;29;20571;-68
2023/11/06 07:50:23;;;;;;;;;;;;;;;10.67;78.99;99359.75;4025741;29;20030;-69
2023/11/06 07:52:25;;;;;;;;;;;;;;;10.70;79.09;99361.22;4058187;29;20039;-69
2023/11/06 07:54:27;;;;;;;;;;;;;;;10.70;79.11;99362.03;4056226;29;20014;-68
2023/11/06 07:56:28;;;;;;;;;;;;;;;10.72;78.81;99357.28;4056088;29;20010;-69
2023/11/06 07:58:30;;;;;;;;;;;;;;;10.74;79.07;99375.97;4053346;29;20014;-68
2023/11/06 08:00:35;;;;;;;;;;;;;;;10.78;78.60;99363.66;4055582;29;20018;-68
2023/11/06 08:02:37;;;;;;;;;;;;;;;10.80;78.74;99378.63;4057135;29;20010;-68
2023/11/06 08:04:38;;;;;;;;;;;;;;;10.86;78.71;99376.13;4056532;29;20017;-68
2023/11/06 08:06:41;;;;;;;;;;;;;;;10.89;78.46;99371.13;4056566;29;20010;-68
2023/11/06 08:08:43;;;;;;;;;;;;;;;10.91;78.55;99377.16;4056661;29;20645;-69
2023/11/06 08:10:45;;;;;;;;;;;;;;;10.96;78.48;99379.22;4057335;29;20476;-68
2023/11/06 08:12:47;;;;;;;;;;;;;;;10.99;78.16;99376.09;4057326;29;20030;-69
2023/11/06 08:14:49;;;;;;;;;;;;;;;11.02;78.23;99386.47;4057559;29;20017;-69
2023/11/06 08:16:50;;;;;;;;;;;;;;;11.06;78.36;99405.78;4055876;29;20023;-69
2023/11/06 08:18:52;;;;;;;;;;;;;;;11.08;78.10;99382.06;4040724;29;19924;-69
2023/11/06 08:20:54;;;;;;;;;;;;;;;11.11;78.09;99404.09;4056849;29;20018;-69
2023/11/06 08:22:57;;;;;;;;;;;;;;;11.15;77.95;99391.00;4057312;29;20046;-69
2023/11/06 08:24:59;;;;;;;;;;;;;;;11.18;77.78;99393.28;4055855;29;20022;-69
2023/11/06 08:27:02;;;;;;;;;;;;;;;11.22;77.83;99397.19;4056327;29;20368;-68
2023/11/06 08:29:04;;;;;;;;;;;;;;;11.26;77.78;99408.41;4056766;29;19954;-69
2023/11/06 08:31:06;;;;;;;;;;;;;;;11.30;77.76;99428.56;4059789;29;20014;-69
2023/11/06 08:33:08;;;;;;;;;;;;;;;11.35;77.66;99417.94;4060261;29;20061;-68
2023/11/06 08:35:09;;;;;;;;;;;;;;;11.40;77.54;99409.19;4060314;29;20042;-68
2023/11/06 08:37:12;;;;;;;;;;;;;;;11.44;77.29;99427.47;4061016;29;19934;-69
2023/11/06 08:39:17;;;;;;;;;;;;;;;11.50;77.35;99433.88;4060650;29;20010;-68
2023/11/06 08:41:18;;;;;;;;;;;;;;;11.54;76.95;99433.22;4059853;29;20343;-69
2023/11/06 08:43:20;;;;;;;;;;;;;;;11.58;76.87;99436.31;4059977;29;19934;-69
2023/11/06 08:45:22;;;;;;;;;;;;;;;11.62;76.71;99442.97;4060884;29;20005;-69
2023/11/06 08:47:25;;;;;;;;;;;;;;;11.66;76.77;99444.22;4058920;29;20034;-69
2023/11/06 08:49:28;;;;;;;;;;;;;;;11.70;76.50;99468.94;4060005;29;20026;-68
2023/11/06 08:51:31;;;;;;;;;;;;;;;11.75;76.54;99455.59;4060158;29;20018;-69
2023/11/06 08:53:33;;;;;;;;;;;;;;;11.77;75.96;99456.22;4060497;29;20019;-69
2023/11/06 08:55:36;;;;;;;;;;;;;;;11.79;76.03;99469.53;4060198;29;20057;-68
2023/11/06 08:57:38;;;;;;;;;;;;;;;11.80;76.01;99460.34;4059893;29;20018;-68
2023/11/06 08:59:41;;;;;;;;;;;;;;;11.82;75.75;99478.03;4059202;29;20010;-69
2023/11/06 09:01:47;;;;;;;;;;;;;;;11.85;75.93;99482.19;4059400;29;20026;-68
2023/11/06 09:03:49;;;;;;;;;;;;;;;11.86;75.78;99473.84;4028247;29;20084;-69
2023/11/06 09:05:52;;;;;;;;;;;;;;;11.88;75.69;99484.44;4060153;29;20635;-69
2023/11/06 09:07:53;;;;;;;;;;;;;;;11.89;75.42;99494.22;4060125;29;20038;-69
2023/11/06 09:09:55;;;;;;;;;;;;;;;11.89;75.64;99494.22;4059521;29;20030;-69
2023/11/06 09:11:59;;;;;;;;;;;;;;;11.87;75.67;99501.75;4059463;29;20042;-69
2023/11/06 09:14:03;;;;;;;;;;;;;;;11.87;75.34;99499.84;4059658;29;20014;-69
2023/11/06 09:16:05;;;;;;;;;;;;;;;11.88;75.71;99487.16;4059745;29;20017;-69
2023/11/06 09:18:07;;;;;;;;;;;;;;;11.88;75.50;99504.22;4060151;29;20026;-69
2023/11/06 09:20:10;;;;;;;;;;;;;;;11.89;75.55;99507.75;4059059;29;20130;-69
2023/11/06 09:22:12;;;;;;;;;;;;;;;11.88;75.52;99512.34;4059264;29;20030;-68
2023/11/06 09:24:14;;;;;;;;;;;;;;;11.87;75.48;99513.38;4059902;29;20025;-68
2023/11/06 09:26:16;;;;;;;;;;;;;;;11.85;75.13;99511.97;4059700;29;20445;-68
2023/11/06 09:28:21;;;;;;;;;;;;;;;11.87;75.36;99531.50;4059621;29;20017;-69
2023/11/06 09:30:23;;;;;;;;;;;;;;;11.83;75.35;99523.00;4060317;29;20469;-69
2023/11/06 09:32:25;;;;;;;;;;;;;;;11.83;75.30;99543.78;4059216;29;20356;-69
2023/11/06 09:34:27;;;;;;;;;;;;;;;11.81;75.21;99543.19;4058960;29;20029;-69
2023/11/06 09:36:30;;;;;;;;;;;;;;;11.79;75.24;99546.09;4059553;29;20019;-68
2023/11/06 09:38:32;;;;;;;;;;;;;;;11.77;75.51;99545.50;4059819;29;20023;-69
2023/11/06 09:40:34;;;;;;;;;;;;;;;11.78;75.53;99544.44;4059036;29;20022;-69
2023/11/06 09:42:36;;;;;;;;;;;;;;;11.81;75.36;99556.72;4059068;29;20033;-69
2023/11/06 09:44:39;;;;;;;;;;;;;;;11.81;75.67;99559.41;4059476;29;20022;-69
2023/11/06 09:46:41;;;;;;;;;;;;;;;11.79;75.60;99548.81;4059992;29;20018;-69
2023/11/06 09:48:43;;;;;;;;;;;;;;;11.78;75.51;99565.25;4059811;29;20018;-69
2023/11/06 09:50:45;;;;;;;;;;;;;;;11.80;75.48;99566.72;4059006;29;19950;-69
2023/11/06 09:52:48;;;;;;;;;;;;;;;11.77;75.43;99550.91;4059174;29;20026;-69
2023/11/06 09:54:50;;;;;;;;;;;;;;;11.77;75.39;99558.16;4058984;29;20451;-69
2023/11/06 09:56:53;;;;;;;;;;;;;;;11.73;75.39;99574.81;4058767;29;20022;-69
2023/11/06 09:58:55;;;;;;;;;;;;;;;11.72;75.47;99566.91;4058295;29;20018;-69
2023/11/06 10:00:58;;;;;;;;;;;;;;;11.71;75.75;99562.56;4059075;29;20010;-69
2023/11/06 10:03:00;;;;;;;;;;;;;;;11.71;75.65;99579.63;4059020;29;20018;-69
2023/11/06 10:05:03;;;;;;;;;;;;;;;11.76;75.40;99573.56;4059040;29;20017;-69
2023/11/06 10:07:05;;;;;;;;;;;;;;;11.75;75.72;99574.59;4058465;29;20018;-69
2023/11/06 10:09:19;;;;;;;;;;;;;;;11.76;75.69;99594.41;4059115;29;20018;-69
2023/11/06 10:11:25;;;;;;;;;;;;;;;11.75;75.72;99580.03;4059159;29;20054;-69
2023/11/06 10:13:27;;;;;;;;;;;;;;;11.72;75.75;99578.59;4058763;29;20260;-69
2023/11/06 10:15:30;;;;;;;;;;;;;;;11.72;75.61;99593.97;4059033;29;20355;-69
2023/11/06 10:17:33;;;;;;;;;;;;;;;11.72;75.89;99591.25;4058492;29;20010;-69
2023/11/06 10:19:35;;;;;;;;;;;;;;;11.69;75.74;99587.13;4058591;29;20010;-69
2023/11/06 10:21:37;;;;;;;;;;;;;;;11.71;75.73;99592.31;4057878;29;20363;-69
2023/11/06 10:23:42;;;;;;;;;;;;;;;11.73;75.75;99595.63;4059304;29;20347;-69